createdAt,value
2022-08-22T05:24:48.446Z,18.73
2022-08-22T05:28:07.307Z,18.82
2022-08-22T05:31:15.319Z,18.86
2022-08-22T05:34:26.642Z,18.89
2022-08-22T05:37:41.363Z,18.94
2022-08-22T05:40:52.900Z,19.04
2022-08-22T05:43:56.074Z,19.08
2022-08-22T05:47:22.805Z,19.13
2022-08-22T05:50:38.598Z,19.26
2022-08-22T05:53:47.897Z,19.34
2022-08-22T05:56:57.746Z,19.43
2022-08-22T06:00:12.472Z,19.54
2022-08-22T06:03:26.925Z,19.66
2022-08-22T06:06:34.251Z,19.73
2022-08-22T06:09:46.013Z,19.81
2022-08-22T06:12:51.877Z,19.86
2022-08-22T06:16:05.675Z,20.02
2022-08-22T06:19:19.383Z,20.14
2022-08-22T06:22:36.310Z,20.28
2022-08-22T06:25:43.329Z,20.36
2022-08-22T06:28:55.185Z,20.34
2022-08-22T06:32:03.411Z,20.49
2022-08-22T06:35:15.963Z,20.65
2022-08-22T06:38:20.347Z,20.75
2022-08-22T06:41:27.939Z,20.80
2022-08-22T06:44:35.417Z,20.92
2022-08-22T06:47:50.272Z,21.06
2022-08-22T06:50:57.450Z,21.12
2022-08-22T06:54:05.396Z,21.20
2022-08-22T06:57:25.094Z,21.27
2022-08-22T07:00:28.384Z,21.29
2022-08-22T07:03:35.234Z,21.66
2022-08-22T07:06:50.013Z,21.83
2022-08-22T07:09:56.128Z,21.84
2022-08-22T07:12:59.139Z,21.88
2022-08-22T07:16:07.013Z,21.74
2022-08-22T07:19:22.524Z,21.92
2022-08-22T07:22:29.507Z,22.13
2022-08-22T07:25:45.724Z,22.30
2022-08-22T07:29:00.776Z,22.29
2022-08-22T07:32:16.273Z,22.06
2022-08-22T07:35:24.807Z,21.94
2022-08-22T07:38:34.859Z,21.94
2022-08-22T07:41:55.048Z,22.12
2022-08-22T07:45:15.573Z,22.33
2022-08-22T07:48:29.354Z,22.31
2022-08-22T07:51:44.115Z,22.47
2022-08-22T07:54:56.242Z,22.62
2022-08-22T07:58:05.448Z,22.70
2022-08-22T08:01:18.058Z,23.12
2022-08-22T08:04:26.170Z,23.57
2022-08-22T08:07:30.393Z,23.56
2022-08-22T08:10:39.565Z,23.60
2022-08-22T08:13:45.912Z,23.67
2022-08-22T08:16:48.788Z,23.53
2022-08-22T08:19:54.433Z,23.61
2022-08-22T08:22:59.564Z,23.95
2022-08-22T08:26:24.311Z,24.20
2022-08-22T08:29:29.266Z,23.99
2022-08-22T08:32:35.243Z,23.50
2022-08-22T08:36:03.206Z,23.42
2022-08-22T08:39:35.125Z,23.43
2022-08-22T08:43:17.050Z,23.45
2022-08-22T08:46:55.649Z,23.60
2022-08-22T08:50:23.808Z,23.73
2022-08-22T08:54:05.046Z,23.66
2022-08-22T08:57:34.888Z,23.83
2022-08-22T09:00:57.449Z,24.13
2022-08-22T09:04:17.757Z,24.25
2022-08-22T09:07:51.671Z,24.19
2022-08-22T09:11:14.419Z,24.06
2022-08-22T09:14:38.169Z,23.92
2022-08-22T09:17:47.131Z,23.86
2022-08-22T09:21:02.504Z,23.88
2022-08-22T09:24:35.430Z,24.23
2022-08-22T09:28:01.664Z,25.06
2022-08-22T09:31:32.804Z,25.31
2022-08-22T09:34:53.794Z,25.26
2022-08-22T09:38:18.785Z,25.25
2022-08-22T09:41:54.189Z,25.10
2022-08-22T09:45:19.358Z,25.20
2022-08-22T09:48:31.628Z,24.91
2022-08-22T09:52:15.740Z,24.53
2022-08-22T09:55:45.516Z,24.25
2022-08-22T09:59:18.137Z,24.01
2022-08-22T10:02:43.712Z,23.98
2022-08-22T10:06:02.250Z,24.09
2022-08-22T10:09:25.297Z,24.27
2022-08-22T10:12:50.671Z,24.22
2022-08-22T10:16:20.208Z,24.24
2022-08-22T10:19:33.834Z,24.23
2022-08-22T10:22:41.381Z,24.24
2022-08-22T10:26:09.785Z,24.45
2022-08-22T10:29:49.168Z,24.75
2022-08-22T10:33:05.698Z,24.83
2022-08-22T10:36:23.492Z,25.06
2022-08-22T10:39:44.289Z,24.65
2022-08-22T10:43:18.264Z,24.90
2022-08-22T10:46:34.417Z,25.08
2022-08-22T10:49:46.759Z,25.58
2022-08-22T10:53:35.329Z,26.15
2022-08-22T10:56:50.341Z,26.48
2022-08-22T11:00:32.820Z,26.87
2022-08-22T11:03:56.511Z,27.06
2022-08-22T11:07:12.935Z,27.21
2022-08-22T11:10:27.525Z,27.07
2022-08-22T11:13:33.989Z,26.87
2022-08-22T11:16:56.256Z,26.93
2022-08-22T11:20:28.687Z,27.09
2022-08-22T11:23:48.294Z,27.36
2022-08-22T11:27:14.607Z,26.84
2022-08-22T11:30:44.589Z,26.90
2022-08-22T11:34:12.936Z,27.14
2022-08-22T11:37:15.467Z,27.23
2022-08-22T11:40:37.777Z,27.26
2022-08-22T11:43:59.392Z,28.02
2022-08-22T11:47:14.678Z,28.60
2022-08-22T11:50:36.245Z,28.13
2022-08-22T11:53:49.512Z,27.13
2022-08-22T11:57:15.464Z,26.43
2022-08-22T12:00:47.770Z,25.86
2022-08-22T12:04:32.963Z,25.16
2022-08-22T12:07:41.019Z,24.83
2022-08-22T12:10:55.916Z,24.64
2022-08-22T12:14:27.007Z,24.74
2022-08-22T12:18:01.301Z,24.63
2022-08-22T12:21:07.726Z,24.78
2022-08-22T12:24:24.818Z,25.15
2022-08-22T12:27:55.115Z,25.61
2022-08-22T12:31:26.312Z,25.75
2022-08-22T12:34:54.887Z,26.09
2022-08-22T12:38:28.101Z,26.98
2022-08-22T12:42:04.113Z,28.63
2022-08-22T12:45:13.359Z,28.93
2022-08-22T12:48:47.605Z,28.48
2022-08-22T12:51:50.605Z,28.18
2022-08-22T12:55:24.851Z,27.67
2022-08-22T12:58:51.167Z,27.85
2022-08-22T13:01:59.425Z,27.97
2022-08-22T13:05:08.728Z,28.71
2022-08-22T13:08:25.021Z,30.94
2022-08-22T13:11:37.304Z,32.54
2022-08-22T13:14:40.804Z,31.53
2022-08-22T13:17:44.836Z,30.40
2022-08-22T13:20:50.871Z,29.52
2022-08-22T13:23:57.190Z,29.22
2022-08-22T13:27:07.452Z,28.41
2022-08-22T13:30:26.442Z,27.58
2022-08-22T13:33:36.026Z,26.98
2022-08-22T13:36:52.032Z,26.53
2022-08-22T13:40:01.945Z,26.09
2022-08-22T13:43:11.710Z,25.59
2022-08-22T13:46:25.637Z,24.56
2022-08-22T13:49:44.298Z,23.59
2022-08-22T13:52:55.268Z,22.92
2022-08-22T13:56:15.783Z,22.18
2022-08-22T13:59:49.156Z,21.64
2022-08-22T14:03:05.391Z,21.61
2022-08-22T14:06:37.550Z,21.69
2022-08-22T14:09:58.175Z,21.92
2022-08-22T14:13:01.060Z,21.99
2022-08-22T14:16:11.004Z,22.08
2022-08-22T14:19:32.158Z,22.26
2022-08-22T14:23:04.155Z,22.40
2022-08-22T14:26:07.889Z,22.49
2022-08-22T14:29:18.870Z,22.53
2022-08-22T14:32:23.020Z,22.49
2022-08-22T14:35:35.193Z,22.29
2022-08-22T14:38:47.083Z,21.90
2022-08-22T14:42:04.288Z,21.68
2022-08-22T14:45:15.718Z,21.59
2022-08-22T14:48:32.242Z,21.50
2022-08-22T14:51:37.996Z,21.48
2022-08-22T14:54:43.585Z,21.35
2022-08-22T14:58:03.541Z,21.31
2022-08-22T15:01:15.504Z,21.40
2022-08-22T15:04:25.581Z,21.59
2022-08-22T15:07:33.905Z,21.86
2022-08-22T15:10:41.872Z,22.05
2022-08-22T15:14:02.472Z,22.21
2022-08-22T15:17:08.469Z,22.28
2022-08-22T15:20:35.652Z,22.43
2022-08-22T15:23:45.183Z,22.36
2022-08-22T15:26:55.592Z,22.43
2022-08-22T15:30:00.159Z,22.45
2022-08-22T15:33:14.914Z,22.45
2022-08-22T15:36:26.365Z,22.48
2022-08-22T15:39:56.507Z,22.47
2022-08-22T15:43:19.958Z,22.49
2022-08-22T16:20:19.807Z,22.05
2022-08-22T16:32:18.741Z,22.00
